createdAt,value
2024-01-14T00:00:07.956Z,58.93
2024-01-14T00:02:38.564Z,59.18
2024-01-14T00:05:07.887Z,59.46
2024-01-14T00:07:37.346Z,59.72
2024-01-14T00:10:06.554Z,59.75
2024-01-14T00:12:35.060Z,59.54
2024-01-14T00:15:03.434Z,59.88
2024-01-14T00:17:34.161Z,59.52
2024-01-14T00:20:05.259Z,59.68
2024-01-14T00:22:33.243Z,59.91
2024-01-14T00:25:01.187Z,59.52
2024-01-14T00:27:29.290Z,59.56
2024-01-14T00:29:59.490Z,59.93
2024-01-14T00:32:27.543Z,59.97
2024-01-14T00:34:55.807Z,59.60
2024-01-14T00:37:25.866Z,59.29
2024-01-14T00:39:53.914Z,59.30
2024-01-14T00:42:22.238Z,59.33
2024-01-14T00:44:50.411Z,59.58
2024-01-14T00:47:18.543Z,59.38
2024-01-14T00:49:46.642Z,59.49
2024-01-14T00:52:14.868Z,59.24
2024-01-14T00:54:44.461Z,59.34
2024-01-14T00:57:12.547Z,59.58
2024-01-14T00:59:40.623Z,59.20
2024-01-14T01:02:08.757Z,59.28
2024-01-14T01:04:36.725Z,59.64
2024-01-14T01:07:05.109Z,59.17
2024-01-14T01:09:33.282Z,59.56
2024-01-14T01:12:02.848Z,59.17
2024-01-14T01:14:31.712Z,59.25
2024-01-14T01:16:59.660Z,59.74
2024-01-14T01:19:28.318Z,59.37
2024-01-14T01:21:56.306Z,60.08
2024-01-14T01:24:24.232Z,59.54
2024-01-14T01:26:52.782Z,59.20
2024-01-14T01:29:22.773Z,59.03
2024-01-14T01:31:55.730Z,59.19
2024-01-14T01:34:26.748Z,59.40
2024-01-14T01:36:54.885Z,59.72
2024-01-14T01:39:22.936Z,59.24
2024-01-14T01:41:51.346Z,58.96
2024-01-14T01:44:19.417Z,59.23
2024-01-14T01:46:49.012Z,59.76
2024-01-14T01:49:17.156Z,59.52
2024-01-14T01:51:48.412Z,59.10
2024-01-14T01:54:16.778Z,59.50
2024-01-14T01:56:44.728Z,59.21
2024-01-14T01:59:12.666Z,59.03
2024-01-14T02:01:40.804Z,58.88
2024-01-14T02:04:10.474Z,59.45
2024-01-14T02:06:38.906Z,59.64
2024-01-14T02:09:08.883Z,59.34
2024-01-14T02:11:37.003Z,58.70
2024-01-14T02:14:04.869Z,59.52
2024-01-14T02:16:32.864Z,59.57
2024-01-14T02:19:01.125Z,59.19
2024-01-14T02:21:32.697Z,59.56
2024-01-14T02:24:04.539Z,59.38
2024-01-14T02:26:34.003Z,59.67
2024-01-14T02:29:04.508Z,59.30
2024-01-14T02:31:33.777Z,59.22
2024-01-14T02:34:02.422Z,59.49
2024-01-14T02:36:30.562Z,59.55
2024-01-14T02:38:58.760Z,59.25
2024-01-14T02:41:27.016Z,59.30
2024-01-14T02:43:56.525Z,58.81
2024-01-14T02:46:24.480Z,58.98
2024-01-14T02:48:52.410Z,59.08
2024-01-14T02:51:22.753Z,59.22
2024-01-14T02:53:51.773Z,59.22
2024-01-14T02:56:19.910Z,58.87
2024-01-14T02:58:47.914Z,58.98
2024-01-14T03:01:19.021Z,59.17
2024-01-14T03:03:47.032Z,59.35
2024-01-14T03:06:15.406Z,59.40
2024-01-14T03:08:49.701Z,58.98
2024-01-14T03:11:17.828Z,59.15
2024-01-14T03:13:45.876Z,59.32
2024-01-14T03:16:13.985Z,58.60
2024-01-14T03:18:43.621Z,58.68
2024-01-14T03:21:19.018Z,58.54
2024-01-14T03:23:47.022Z,59.15
2024-01-14T03:26:15.410Z,59.22
2024-01-14T03:28:43.555Z,59.25
2024-01-14T03:31:15.751Z,59.28
2024-01-14T03:33:45.344Z,58.79
2024-01-14T03:36:15.249Z,58.66
2024-01-14T03:38:43.507Z,58.99
2024-01-14T03:41:11.581Z,59.25
2024-01-14T03:43:39.605Z,58.75
2024-01-14T03:46:23.126Z,59.19
2024-01-14T03:48:52.678Z,58.68
2024-01-14T03:51:20.747Z,58.74
2024-01-14T03:53:48.798Z,59.19
2024-01-14T03:56:16.846Z,58.74
2024-01-14T03:58:44.872Z,59.19
2024-01-14T04:01:17.616Z,59.23
2024-01-14T04:03:45.840Z,59.19
2024-01-14T04:06:15.549Z,58.90
2024-01-14T04:08:43.697Z,59.34
2024-01-14T04:11:11.695Z,59.14
2024-01-14T04:13:39.642Z,59.05
2024-01-14T04:16:08.949Z,58.88
2024-01-14T04:18:37.486Z,58.51
2024-01-14T04:21:06.102Z,58.87
2024-01-14T04:23:35.510Z,58.58
2024-01-14T04:26:07.102Z,59.09
2024-01-14T04:28:35.075Z,58.60
2024-01-14T04:31:03.215Z,58.82
2024-01-14T04:33:31.374Z,59.18
2024-01-14T04:35:59.409Z,59.19
2024-01-14T04:38:27.303Z,58.93
2024-01-14T04:40:56.765Z,59.01
2024-01-14T04:43:24.749Z,59.02
2024-01-14T04:45:52.598Z,59.17
2024-01-14T04:48:20.802Z,58.99
2024-01-14T04:50:48.908Z,58.85
2024-01-14T04:53:16.786Z,59.53
2024-01-14T04:55:44.783Z,58.37
2024-01-14T04:58:14.196Z,58.48
2024-01-14T05:00:42.189Z,58.87
2024-01-14T05:03:10.279Z,59.00
2024-01-14T05:05:38.271Z,58.82
2024-01-14T05:08:06.707Z,58.84
2024-01-14T05:10:34.663Z,58.53
2024-01-14T05:13:02.542Z,59.06
2024-01-14T05:15:31.867Z,58.74
2024-01-14T05:18:00.226Z,58.95
2024-01-14T05:20:28.668Z,59.08
2024-01-14T05:22:56.687Z,58.96
2024-01-14T05:25:24.551Z,59.00
2024-01-14T05:27:52.577Z,59.36
2024-01-14T05:30:20.881Z,59.27
2024-01-14T05:32:50.288Z,58.74
2024-01-14T05:35:18.456Z,59.00
2024-01-14T05:37:46.434Z,59.00
2024-01-14T05:40:14.659Z,58.61
2024-01-14T05:42:43.086Z,58.81
2024-01-14T05:45:12.247Z,58.64
2024-01-14T05:47:40.512Z,58.65
2024-01-14T05:50:10.884Z,58.71
2024-01-14T05:52:38.815Z,58.81
2024-01-14T05:55:06.797Z,58.41
2024-01-14T05:57:34.780Z,58.71
2024-01-14T06:00:02.781Z,58.45
2024-01-14T06:02:30.845Z,58.88
2024-01-14T06:04:58.910Z,58.79
2024-01-14T06:07:28.321Z,59.05
2024-01-14T06:09:56.199Z,59.15
2024-01-14T06:12:24.100Z,58.74
2024-01-14T06:14:52.096Z,58.27
2024-01-14T06:17:19.954Z,58.67
2024-01-14T06:19:47.959Z,58.55
2024-01-14T06:22:15.842Z,58.52
2024-01-14T06:24:45.938Z,59.30
2024-01-14T06:27:13.790Z,58.25
2024-01-14T06:29:41.892Z,58.40
2024-01-14T06:32:09.659Z,58.92
2024-01-14T06:34:37.564Z,58.73
2024-01-14T06:37:06.100Z,58.37
2024-01-14T06:39:33.927Z,58.54
2024-01-14T06:42:03.145Z,58.71
2024-01-14T06:44:30.952Z,58.99
2024-01-14T06:46:58.737Z,58.78
2024-01-14T06:49:26.564Z,58.84
2024-01-14T06:51:54.443Z,58.40
2024-01-14T06:54:22.301Z,58.22
2024-01-14T06:56:50.078Z,58.98
2024-01-14T06:59:20.408Z,58.73
2024-01-14T07:01:48.489Z,58.35
2024-01-14T07:04:16.985Z,58.67
2024-01-14T07:06:44.919Z,58.57
2024-01-14T07:09:13.862Z,58.82
2024-01-14T07:11:41.955Z,58.05
2024-01-14T07:14:09.818Z,58.90
2024-01-14T07:16:38.969Z,58.62
2024-01-14T07:19:07.035Z,58.66
2024-01-14T07:21:34.999Z,59.10
2024-01-14T07:24:03.016Z,58.88
2024-01-14T07:26:30.952Z,58.56
2024-01-14T07:28:58.854Z,58.42
2024-01-14T07:31:29.006Z,58.73
2024-01-14T07:33:58.646Z,58.66
2024-01-14T07:36:26.684Z,59.08
2024-01-14T07:38:55.308Z,58.20
2024-01-14T07:41:23.205Z,58.56
2024-01-14T07:43:50.982Z,58.14
2024-01-14T07:46:19.817Z,58.08
2024-01-14T07:48:47.729Z,58.50
2024-01-14T07:51:17.046Z,58.20
2024-01-14T07:53:44.875Z,58.37
2024-01-14T07:56:12.817Z,58.71
2024-01-14T07:58:40.556Z,58.11
2024-01-14T08:01:08.485Z,58.52
2024-01-14T08:03:37.685Z,59.00
2024-01-14T08:06:06.479Z,58.29
2024-01-14T08:08:35.813Z,58.23
2024-01-14T08:11:03.631Z,58.35
2024-01-14T08:13:31.463Z,58.04
2024-01-14T08:16:02.698Z,58.79
2024-01-14T08:18:32.565Z,58.24
2024-01-14T08:21:01.354Z,58.19
2024-01-14T08:23:30.967Z,58.24
2024-01-14T08:26:00.293Z,58.02
2024-01-14T08:28:28.150Z,57.82
2024-01-14T08:30:56.039Z,58.36
2024-01-14T08:33:24.056Z,58.38
2024-01-14T08:35:52.102Z,58.02
2024-01-14T08:38:20.271Z,57.86
2024-01-14T08:40:48.095Z,58.99
2024-01-14T08:43:17.498Z,58.51
2024-01-14T08:45:45.367Z,57.76
2024-01-14T08:48:14.554Z,57.99
2024-01-14T08:50:42.556Z,58.45
2024-01-14T08:53:10.404Z,57.88
2024-01-14T08:55:38.244Z,58.30
2024-01-14T08:58:05.969Z,57.72
2024-01-14T09:00:35.272Z,57.78
2024-01-14T09:03:03.167Z,58.23
2024-01-14T09:05:31.015Z,57.75
2024-01-14T09:07:58.782Z,58.22
2024-01-14T09:10:26.485Z,57.71
2024-01-14T09:12:54.153Z,58.31
2024-01-14T09:15:22.097Z,57.81
2024-01-14T09:17:52.676Z,57.91
2024-01-14T09:20:21.125Z,58.11
2024-01-14T09:22:48.961Z,58.30
2024-01-14T09:25:17.129Z,57.70
2024-01-14T09:27:44.930Z,57.85
2024-01-14T09:30:14.258Z,58.13
2024-01-14T09:32:42.437Z,57.57
2024-01-14T09:35:12.030Z,57.63
2024-01-14T09:37:39.910Z,58.43
2024-01-14T09:40:09.042Z,57.78
2024-01-14T09:42:36.998Z,57.17
2024-01-14T09:45:06.863Z,57.75
2024-01-14T09:47:35.181Z,58.15
2024-01-14T09:50:04.496Z,57.26
2024-01-14T09:52:33.864Z,58.02
2024-01-14T09:55:01.899Z,58.37
2024-01-14T09:57:30.771Z,57.68
2024-01-14T09:59:59.305Z,57.57
2024-01-14T10:02:28.127Z,57.54
2024-01-14T10:04:55.928Z,57.53
2024-01-14T10:07:23.816Z,56.97
2024-01-14T10:09:53.482Z,56.93
2024-01-14T10:12:21.301Z,57.60
2024-01-14T10:14:58.411Z,57.03
2024-01-14T10:17:26.207Z,57.00
2024-01-14T10:19:54.750Z,57.34
2024-01-14T10:22:22.837Z,57.11
2024-01-14T10:24:55.149Z,56.90
2024-01-14T10:27:34.429Z,56.65
2024-01-14T10:30:06.994Z,57.35
2024-01-14T10:33:15.096Z,57.55
2024-01-14T10:35:26.627Z,57.00
2024-01-14T10:37:54.620Z,56.51
2024-01-14T10:40:23.812Z,56.96
2024-01-14T10:42:51.606Z,57.34
2024-01-14T10:45:19.851Z,57.24
2024-01-14T10:47:49.540Z,56.91
2024-01-14T10:50:19.105Z,57.19
2024-01-14T10:52:50.635Z,56.76
2024-01-14T10:55:28.276Z,56.82
2024-01-14T10:57:56.075Z,57.25
2024-01-14T11:00:24.198Z,56.57
2024-01-14T11:02:52.212Z,56.94
2024-01-14T11:05:20.195Z,56.76
2024-01-14T11:07:48.129Z,56.40
2024-01-14T11:10:16.280Z,57.02
2024-01-14T11:12:49.105Z,56.98
2024-01-14T11:15:23.264Z,56.58
2024-01-14T11:17:55.841Z,56.74
2024-01-14T11:20:32.200Z,57.11
2024-01-14T11:23:07.425Z,56.51
2024-01-14T11:25:36.249Z,56.63
2024-01-14T11:28:07.666Z,56.33
2024-01-14T11:30:51.170Z,56.39
2024-01-14T11:33:29.183Z,56.38
2024-01-14T11:35:57.601Z,56.37
2024-01-14T11:38:35.644Z,55.94
2024-01-14T11:41:25.643Z,56.03
2024-01-14T11:43:55.782Z,56.63
2024-01-14T11:46:52.616Z,56.23
2024-01-14T11:49:25.557Z,56.08
2024-01-14T11:51:54.067Z,56.18
2024-01-14T11:54:22.965Z,56.59
2024-01-14T11:56:50.841Z,55.68
2024-01-14T11:59:34.163Z,56.04
2024-01-14T12:02:16.099Z,56.39
2024-01-14T12:04:47.330Z,56.24
2024-01-14T12:07:21.813Z,56.65
2024-01-14T12:09:54.367Z,56.22
2024-01-14T12:12:23.731Z,56.32
2024-01-14T12:14:53.936Z,56.30
2024-01-14T12:17:21.992Z,55.89
2024-01-14T12:19:57.822Z,56.22
2024-01-14T12:22:26.315Z,56.17
2024-01-14T12:24:54.303Z,55.87
2024-01-14T12:27:22.476Z,55.42
2024-01-14T12:29:50.632Z,55.39
2024-01-14T12:32:20.234Z,55.97
2024-01-14T12:34:51.182Z,56.32
2024-01-14T12:37:19.236Z,55.66
2024-01-14T12:39:47.310Z,55.17
2024-01-14T12:42:15.426Z,56.07
2024-01-14T12:44:45.077Z,55.28
2024-01-14T12:47:13.378Z,55.35
2024-01-14T12:49:42.848Z,56.10
2024-01-14T12:52:11.602Z,56.27
2024-01-14T12:54:40.502Z,55.98
2024-01-14T12:59:39.496Z,56.26
2024-01-14T13:02:07.614Z,55.81
2024-01-14T13:04:35.707Z,55.59
2024-01-14T13:07:12.304Z,56.17
2024-01-14T13:09:41.885Z,55.64
2024-01-14T13:12:10.439Z,56.14
2024-01-14T13:14:50.722Z,55.67
2024-01-14T13:17:18.855Z,55.95
2024-01-14T13:19:47.459Z,55.92
2024-01-14T13:22:17.316Z,55.95
2024-01-14T13:24:45.531Z,55.83
2024-01-14T13:27:14.001Z,56.11
2024-01-14T13:29:42.220Z,56.36
2024-01-14T13:32:10.593Z,56.14
2024-01-14T13:34:38.771Z,56.26
2024-01-14T13:37:06.937Z,56.00
2024-01-14T13:39:36.441Z,56.31
2024-01-14T13:42:04.575Z,56.48
2024-01-14T13:44:32.610Z,56.12
2024-01-14T13:47:01.039Z,55.62
2024-01-14T13:49:29.422Z,55.71
2024-01-14T13:51:57.664Z,55.70
2024-01-14T13:54:25.820Z,55.43
2024-01-14T13:56:56.088Z,56.44
2024-01-14T13:59:27.222Z,56.30
2024-01-14T14:01:58.984Z,55.43
2024-01-14T14:04:28.173Z,55.89
2024-01-14T14:06:56.569Z,56.04
2024-01-14T14:09:26.580Z,56.09
2024-01-14T14:11:56.479Z,56.27
2024-01-14T14:14:24.636Z,56.30
2024-01-14T14:16:52.713Z,55.55
2024-01-14T14:19:23.077Z,56.18
2024-01-14T14:21:59.683Z,56.54
2024-01-14T14:24:33.289Z,56.52
2024-01-14T14:27:09.743Z,56.84
2024-01-14T14:29:38.331Z,56.68
2024-01-14T14:32:09.014Z,56.38
2024-01-14T14:34:40.087Z,56.88
2024-01-14T14:37:09.502Z,56.33
2024-01-14T14:39:37.742Z,55.99
2024-01-14T14:42:08.388Z,56.35
2024-01-14T14:44:37.163Z,56.09
2024-01-14T14:47:18.640Z,56.06
2024-01-14T14:49:48.858Z,55.99
2024-01-14T14:52:17.562Z,56.34
2024-01-14T14:54:46.950Z,55.80
2024-01-14T14:57:17.152Z,56.37
2024-01-14T14:59:47.761Z,56.74
2024-01-14T15:02:21.650Z,56.05
2024-01-14T15:04:53.093Z,56.25
2024-01-14T15:07:21.593Z,56.48
2024-01-14T15:09:50.331Z,55.88
2024-01-14T15:12:19.929Z,56.70
2024-01-14T15:14:51.918Z,56.38
2024-01-14T15:17:24.125Z,56.15
2024-01-14T15:19:54.876Z,56.08
2024-01-14T15:22:23.358Z,56.73
2024-01-14T15:25:00.212Z,56.60
2024-01-14T15:27:35.147Z,56.24
2024-01-14T15:30:03.904Z,56.18
2024-01-14T15:32:57.281Z,55.85
2024-01-14T15:35:35.506Z,56.41
2024-01-14T15:38:11.772Z,56.41
2024-01-14T15:40:47.770Z,56.29
2024-01-14T15:43:37.188Z,56.09
2024-01-14T15:46:07.623Z,56.54
2024-01-14T15:48:44.183Z,55.98
2024-01-14T15:51:17.170Z,56.83
2024-01-14T15:54:01.040Z,56.39
2024-01-14T15:56:42.520Z,56.70
2024-01-14T15:59:22.538Z,56.64
2024-01-14T16:01:58.174Z,56.06
2024-01-14T16:04:49.071Z,56.67
2024-01-14T16:07:20.988Z,56.63
2024-01-14T16:09:53.015Z,56.52
2024-01-14T16:12:41.389Z,56.50
2024-01-14T16:15:11.897Z,56.55
2024-01-14T16:17:42.311Z,57.29
2024-01-14T16:20:14.749Z,56.65
2024-01-14T16:22:55.109Z,56.47
2024-01-14T16:25:24.078Z,56.53
2024-01-14T16:28:01.685Z,56.61
2024-01-14T16:30:32.550Z,56.33
2024-01-14T16:33:03.311Z,56.60
2024-01-14T16:35:40.486Z,56.84
2024-01-14T16:38:17.501Z,56.52
2024-01-14T16:40:56.436Z,56.16
2024-01-14T16:43:30.113Z,56.55
2024-01-14T16:46:04.218Z,56.70
2024-01-14T16:48:44.508Z,56.46
2024-01-14T16:51:14.189Z,56.53
2024-01-14T16:53:46.737Z,56.26
2024-01-14T16:56:19.185Z,56.41
2024-01-14T16:58:48.394Z,56.36
2024-01-14T17:01:20.537Z,56.38
2024-01-14T17:03:51.005Z,57.19
2024-01-14T17:06:25.546Z,56.12
2024-01-14T17:09:02.634Z,56.24
2024-01-14T17:12:09.380Z,56.31
2024-01-14T17:18:01.347Z,56.46
2024-01-14T17:20:40.694Z,56.47
2024-01-14T17:23:32.691Z,55.97
2024-01-14T17:26:08.279Z,56.54
2024-01-14T17:28:42.733Z,56.50
2024-01-14T17:31:27.253Z,56.28
2024-01-14T17:34:24.206Z,56.00
2024-01-14T17:36:56.871Z,56.96
2024-01-14T17:39:39.098Z,55.84
2024-01-14T17:42:17.617Z,56.36
2024-01-14T17:44:58.956Z,56.91
2024-01-14T17:47:37.416Z,56.22
2024-01-14T17:50:31.349Z,56.34
2024-01-14T17:56:16.137Z,56.83
2024-01-14T17:59:00.413Z,56.11
2024-01-14T18:01:28.697Z,55.96
2024-01-14T18:03:56.962Z,56.27
2024-01-14T18:06:26.442Z,56.74
2024-01-14T18:08:56.305Z,56.09
2024-01-14T18:11:24.277Z,56.20
2024-01-14T18:13:52.467Z,57.17
2024-01-14T18:16:20.524Z,56.79
2024-01-14T18:18:56.108Z,56.35
2024-01-14T18:21:25.229Z,55.97
2024-01-14T18:23:54.650Z,56.79
2024-01-14T18:26:25.514Z,57.06
2024-01-14T18:28:53.658Z,56.58
2024-01-14T18:31:26.393Z,56.57
2024-01-14T18:33:54.625Z,57.05
2024-01-14T18:36:25.055Z,56.55
2024-01-14T18:38:54.321Z,56.14
2024-01-14T18:41:22.298Z,56.63
2024-01-14T18:43:50.407Z,55.85
2024-01-14T18:46:18.476Z,56.74
2024-01-14T18:48:46.537Z,56.20
2024-01-14T18:51:14.615Z,55.74
2024-01-14T18:53:44.319Z,56.44
2024-01-14T18:56:13.804Z,56.89
2024-01-14T18:58:41.846Z,56.27
2024-01-14T19:01:10.099Z,56.29
2024-01-14T19:03:40.479Z,55.90
2024-01-14T19:06:08.797Z,56.62
2024-01-14T19:08:38.055Z,57.04
2024-01-14T19:11:07.176Z,57.05
2024-01-14T19:13:36.453Z,57.00
2024-01-14T19:16:04.749Z,56.83
2024-01-14T19:18:33.341Z,56.24
2024-01-14T19:21:04.093Z,56.29
2024-01-14T19:23:34.261Z,56.78
2024-01-14T19:26:04.538Z,56.65
2024-01-14T19:28:32.609Z,56.26
2024-01-14T19:31:04.640Z,56.15
2024-01-14T19:33:33.977Z,56.72
2024-01-14T19:36:03.627Z,56.73
2024-01-14T19:38:31.785Z,55.99
2024-01-14T19:41:00.969Z,56.80
2024-01-14T19:43:33.344Z,56.35
2024-01-14T19:46:34.422Z,55.99
2024-01-14T19:49:03.625Z,56.32
2024-01-14T19:51:35.304Z,56.35
2024-01-14T19:54:04.983Z,56.43
2024-01-14T19:56:40.000Z,55.68
2024-01-14T19:59:07.096Z,56.11
2024-01-14T20:01:36.557Z,56.96
2024-01-14T20:04:05.588Z,56.40
2024-01-14T20:06:33.580Z,55.94
2024-01-14T20:09:03.965Z,56.49
2024-01-14T20:11:32.109Z,56.54
2024-01-14T20:14:04.495Z,56.00
2024-01-14T20:16:33.976Z,56.82
2024-01-14T20:19:06.900Z,56.86
2024-01-14T20:21:35.428Z,56.53
2024-01-14T20:24:10.933Z,56.95
2024-01-14T20:26:38.776Z,56.32
2024-01-14T20:29:06.919Z,56.79
2024-01-14T20:31:36.082Z,56.98
2024-01-14T20:34:06.135Z,57.38
2024-01-14T20:36:34.210Z,56.35
2024-01-14T20:39:02.940Z,56.64
2024-01-14T20:41:31.184Z,57.11
2024-01-14T20:44:05.218Z,56.61
2024-01-14T20:46:33.686Z,57.21
2024-01-14T20:49:01.927Z,56.72
2024-01-14T20:51:33.990Z,56.84
2024-01-14T20:54:10.797Z,56.70
2024-01-14T20:56:40.690Z,56.30
2024-01-14T20:59:18.279Z,57.10
2024-01-14T21:01:48.331Z,57.52
2024-01-14T21:04:17.222Z,57.63
2024-01-14T21:07:02.689Z,57.77
2024-01-14T21:09:32.201Z,57.74
2024-01-14T21:12:01.128Z,56.73
2024-01-14T21:14:30.058Z,57.39
2024-01-14T21:16:59.473Z,56.92
2024-01-14T21:19:32.408Z,57.41
2024-01-14T21:22:08.469Z,57.23
2024-01-14T21:24:37.113Z,56.84
2024-01-14T21:27:08.815Z,57.59
2024-01-14T21:29:37.969Z,57.11
2024-01-14T21:32:11.925Z,57.42
2024-01-14T21:34:40.750Z,57.31
2024-01-14T21:37:13.666Z,57.38
2024-01-14T21:39:44.014Z,56.63
2024-01-14T21:42:26.727Z,58.09
2024-01-14T21:44:58.166Z,57.88
2024-01-14T21:47:26.909Z,57.81
2024-01-14T21:49:57.297Z,57.56
2024-01-14T21:52:27.436Z,57.80
2024-01-14T21:55:01.790Z,57.82
2024-01-14T21:57:35.897Z,57.93
2024-01-14T22:00:13.858Z,58.01
2024-01-14T22:02:42.742Z,57.56
2024-01-14T22:05:11.099Z,57.96
2024-01-14T22:07:40.421Z,57.33
2024-01-14T22:10:09.233Z,57.78
2024-01-14T22:12:37.362Z,58.29
2024-01-14T22:15:08.397Z,57.80
2024-01-14T22:17:37.104Z,57.61
2024-01-14T22:20:08.822Z,57.76
2024-01-14T22:22:37.252Z,57.65
2024-01-14T22:25:12.087Z,57.61
2024-01-14T22:27:40.777Z,57.89
2024-01-14T22:30:15.483Z,57.50
2024-01-14T22:32:44.150Z,57.77
2024-01-14T22:35:13.623Z,58.17
2024-01-14T22:37:41.849Z,58.03
2024-01-14T22:40:12.196Z,57.29
2024-01-14T22:42:40.441Z,57.38
2024-01-14T22:45:08.401Z,57.06
2024-01-14T22:47:36.777Z,58.04
2024-01-14T22:50:05.426Z,57.91
2024-01-14T22:52:33.363Z,57.48
2024-01-14T22:55:01.288Z,57.51
2024-01-14T22:57:32.553Z,58.01
2024-01-14T23:00:00.774Z,57.71
2024-01-14T23:02:28.956Z,58.34
2024-01-14T23:04:56.923Z,57.66
2024-01-14T23:07:25.001Z,57.29
2024-01-14T23:09:53.597Z,57.97
2024-01-14T23:12:21.590Z,57.87
2024-01-14T23:14:53.902Z,57.36
2024-01-14T23:17:22.195Z,57.49
2024-01-14T23:19:53.046Z,58.22
2024-01-14T23:22:21.007Z,57.46
2024-01-14T23:24:50.813Z,58.00
2024-01-14T23:27:18.778Z,57.91
2024-01-14T23:29:47.423Z,58.40
2024-01-14T23:32:23.075Z,57.82
2024-01-14T23:34:51.343Z,57.58
2024-01-14T23:37:19.413Z,57.77
2024-01-14T23:39:50.526Z,58.88
2024-01-14T23:42:18.714Z,58.24
2024-01-14T23:44:46.735Z,58.08
2024-01-14T23:47:14.665Z,57.81
2024-01-14T23:49:46.946Z,58.70
2024-01-14T23:52:14.910Z,58.29
2024-01-14T23:54:42.829Z,58.77
2024-01-14T23:57:10.862Z,60.11
2024-01-14T23:59:37.963Z,59.30
